Madison, Indiana
Current Conditions -  °F | °C
As of 7:53 AM on Thursday 27 Nov 2014 (Local Time) from KLOU Reporting Station
Overcast Overcast  
Wind Chill: 24°   Ceiling: 2200
Heat Index: 31°   Visibility: 7mi
Dew Point: 26°   Wind: 7mph
Humidity: 82%   Direction: 310°NW
Pressure: 30.28"   Gusts: NA
Location:  38.74°N, 85.38°W
Report Text: KLOU 271253Z 31006KT 7SM OVC022 M01/M03 A3028 RMK AO2 SLP257 T10061033
Loading
Personal Weather Stations






























Interactive Weather Map New forecast layout! Learn more

10-Day Weather Forecast

Advertisements
Track Severe Weather on mobile